Time;durP1;ratioP1;P1;durP2;ratioP2;P2;SDS_P1;SDS_P2;PMS_P1;PMS_P2;Temp;Humidity;BMP_temperature;BMP_pressure;BME280_temperature;BME280_humidity;BME280_pressure;Samples;Min_cycle;Max_cycle;Signal;HPM_P1;HPM_P2
2022/10/17 00:00:23;;;;;;;;;;;17.70;70.70;;;;;;5052589;28;20364;-86
2022/10/17 00:02:49;;;;;;;;;;;17.70;70.70;;;;;;5035716;28;20366;-86
2022/10/17 00:05:14;;;;;;;;;;;17.70;70.70;;;;;;5036069;28;19967;-84
2022/10/17 00:07:40;;;;;;;;;;;17.70;70.70;;;;;;5037086;28;20350;-85
2022/10/17 00:10:06;;;;;;;;;;;17.70;70.70;;;;;;5019191;28;19971;-85
2022/10/17 00:12:32;;;;;;;;;;;17.70;70.80;;;;;;5035552;28;19913;-86
2022/10/17 00:14:58;;;;;;;;;;;17.60;70.70;;;;;;5035961;28;19945;-86
2022/10/17 00:17:23;;;;;;;;;;;17.60;70.70;;;;;;5035381;28;19952;-86
2022/10/17 00:19:49;;;;;;;;;;;17.60;70.80;;;;;;5035421;28;20431;-86
2022/10/17 00:22:15;;;;;;;;;;;17.60;70.70;;;;;;5035370;28;19963;-86
2022/10/17 00:24:40;;;;;;;;;;;17.60;70.70;;;;;;5035250;28;20019;-86
2022/10/17 00:27:06;;;;;;;;;;;17.60;70.80;;;;;;5035321;28;19917;-85
2022/10/17 00:29:32;;;;;;;;;;;17.50;70.70;;;;;;5035470;28;20016;-86
2022/10/17 00:31:57;;;;;;;;;;;17.50;70.80;;;;;;5035431;28;20304;-86
2022/10/17 00:34:23;;;;;;;;;;;17.50;70.70;;;;;;5019070;28;19964;-86
2022/10/17 00:36:50;;;;;;;;;;;17.50;71.40;;;;;;5035835;28;19916;-86
2022/10/17 00:39:16;;;;;;;;;;;17.50;70.80;;;;;;5035180;28;19929;-86
2022/10/17 00:41:42;;;;;;;;;;;17.60;70.90;;;;;;5035839;28;19928;-86
2022/10/17 00:44:26;;;;;;;;;;;17.50;70.90;;;;;;5019268;28;20346;-86
2022/10/17 00:46:52;;;;;;;;;;;17.50;70.90;;;;;;5035197;28;19913;-85
2022/10/17 00:49:18;;;;;;;;;;;17.50;70.90;;;;;;5018842;28;20239;-85
2022/10/17 00:51:45;;;;;;;;;;;17.50;70.90;;;;;;5035226;28;19919;-85
2022/10/17 00:54:12;;;;;;;;;;;17.50;70.90;;;;;;5034784;28;20285;-85
2022/10/17 00:56:39;;;;;;;;;;;17.50;70.90;;;;;;5035105;28;20251;-86
2022/10/17 00:59:07;;;;;;;;;;;17.50;70.90;;;;;;5018477;28;19909;-86
2022/10/17 01:01:33;;;;;;;;;;;17.40;70.90;;;;;;5034027;28;19925;-84
2022/10/17 01:04:00;;;;;;;;;;;17.40;70.90;;;;;;5034193;28;20394;-83
2022/10/17 01:06:25;;;;;;;;;;;17.40;70.90;;;;;;5034097;28;20372;-85
2022/10/17 01:08:51;;;;;;;;;;;17.40;70.80;;;;;;5034087;28;19913;-84
2022/10/17 01:11:29;;;;;;;;;;;17.40;70.80;;;;;;5017483;28;20427;-83
2022/10/17 01:14:00;;;;;;;;;;;17.40;70.90;;;;;;5033947;28;20009;-83
2022/10/17 01:16:26;;;;;;;;;;;17.40;70.90;;;;;;5034157;28;19913;-83
2022/10/17 01:19:00;;;;;;;;;;;17.40;70.90;;;;;;5033837;28;19909;-84
2022/10/17 01:21:31;;;;;;;;;;;17.40;70.90;;;;;;5033537;28;19921;-84
2022/10/17 01:24:16;;;;;;;;;;;17.40;70.90;;;;;;5033958;28;19917;-83
2022/10/17 01:26:42;;;;;;;;;;;17.40;70.90;;;;;;5033751;28;19973;-83
2022/10/17 01:29:26;;;;;;;;;;;17.30;70.80;;;;;;5050348;28;19909;-82
2022/10/17 01:32:00;;;;;;;;;;;17.30;70.90;;;;;;5035356;28;19965;-82
2022/10/17 01:34:35;;;;;;;;;;;17.30;70.90;;;;;;5050224;28;20015;-82
2022/10/17 01:37:07;;;;;;;;;;;17.30;70.90;;;;;;5050342;28;20005;-84
2022/10/17 01:39:33;;;;;;;;;;;17.30;70.90;;;;;;5034085;28;19921;-83
2022/10/17 01:42:09;;;;;;;;;;;17.30;70.90;;;;;;5049736;28;20424;-84
2022/10/17 01:44:37;;;;;;;;;;;17.30;70.90;;;;;;5016831;28;19967;-82
2022/10/17 01:47:05;;;;;;;;;;;17.30;70.90;;;;;;5033940;28;19932;-83
2022/10/17 01:49:32;;;;;;;;;;;17.30;71.60;;;;;;5050282;28;20012;-82
2022/10/17 01:52:00;;;;;;;;;;;17.30;70.90;;;;;;5033647;28;19984;-83
2022/10/17 01:54:30;;;;;;;;;;;17.30;70.90;;;;;;5050490;28;20440;-83
2022/10/17 01:56:58;;;;;;;;;;;17.20;70.90;;;;;;5033611;28;19936;-83
2022/10/17 01:59:27;;;;;;;;;;;17.20;70.90;;;;;;5033330;28;19944;-82
2022/10/17 02:01:54;;;;;;;;;;;17.20;70.90;;;;;;5032967;28;19917;-82
2022/10/17 02:04:21;;;;;;;;;;;17.30;70.90;;;;;;5050185;28;19948;-83
2022/10/17 02:06:46;;;;;;;;;;;17.20;70.90;;;;;;5016638;28;19936;-83
2022/10/17 02:09:16;;;;;;;;;;;17.20;70.90;;;;;;5033366;28;19943;-82
2022/10/17 02:11:44;;;;;;;;;;;17.20;70.90;;;;;;5049769;28;19913;-84
2022/10/17 02:14:29;;;;;;;;;;;17.20;70.90;;;;;;5016610;28;19913;-84
2022/10/17 02:16:55;;;;;;;;;;;17.20;70.90;;;;;;5049694;28;19917;-83
2022/10/17 02:19:20;;;;;;;;;;;17.20;70.90;;;;;;5033582;28;19916;-84
2022/10/17 02:21:49;;;;;;;;;;;17.20;70.90;;;;;;5049699;28;19956;-83
2022/10/17 02:24:24;;;;;;;;;;;17.10;70.90;;;;;;5033366;28;19917;-83
2022/10/17 02:27:16;;;;;;;;;;;17.20;70.90;;;;;;5034106;28;19913;-84
2022/10/17 02:30:08;;;;;;;;;;;17.10;70.90;;;;;;5001315;28;19950;-83
2022/10/17 02:32:45;;;;;;;;;;;17.20;71.00;;;;;;4993872;28;19913;-83
2022/10/17 02:35:13;;;;;;;;;;;17.20;71.00;;;;;;5033110;28;20003;-83
2022/10/17 02:37:39;;;;;;;;;;;17.10;70.90;;;;;;5033676;28;19909;-82
2022/10/17 02:40:06;;;;;;;;;;;17.10;70.90;;;;;;5049514;28;19994;-82
2022/10/17 02:42:33;;;;;;;;;;;17.10;70.90;;;;;;5032307;28;21615;-82
2022/10/17 02:45:00;;;;;;;;;;;17.10;70.90;;;;;;5016470;28;19917;-82
2022/10/17 02:47:27;;;;;;;;;;;17.20;71.00;;;;;;5032910;28;19920;-84
2022/10/17 02:49:54;;;;;;;;;;;17.10;70.90;;;;;;5049533;28;19952;-84
2022/10/17 02:52:41;;;;;;;;;;;17.10;71.00;;;;;;5033577;28;19913;-83
2022/10/17 02:55:18;;;;;;;;;;;17.10;71.00;;;;;;5033319;28;19917;-83
2022/10/17 02:57:48;;;;;;;;;;;17.10;71.00;;;;;;5032934;28;19932;-83
2022/10/17 03:00:15;;;;;;;;;;;17.10;71.00;;;;;;5049713;28;19914;-82
2022/10/17 03:02:51;;;;;;;;;;;17.10;71.00;;;;;;5032121;28;19921;-83
2022/10/17 03:05:18;;;;;;;;;;;17.10;71.00;;;;;;5049585;28;19917;-83
2022/10/17 03:07:44;;;;;;;;;;;17.10;71.00;;;;;;5016214;28;20399;-83
2022/10/17 03:10:10;;;;;;;;;;;17.10;71.00;;;;;;5032996;28;19917;-82
2022/10/17 03:12:36;;;;;;;;;;;17.10;71.00;;;;;;5033459;28;19916;-82
2022/10/17 03:15:02;;;;;;;;;;;17.10;71.00;;;;;;5035316;28;19914;-83
2022/10/17 03:17:29;;;;;;;;;;;17.10;71.00;;;;;;5035955;28;19916;-80
2022/10/17 03:19:55;;;;;;;;;;;17.10;71.00;;;;;;5052600;28;19920;-82
2022/10/17 03:22:21;;;;;;;;;;;17.10;71.00;;;;;;5036283;28;19924;-81
2022/10/17 03:24:47;;;;;;;;;;;17.00;71.00;;;;;;5020540;28;19928;-82
2022/10/17 03:27:13;;;;;;;;;;;17.10;71.00;;;;;;5020068;28;19913;-83
2022/10/17 03:29:39;;;;;;;;;;;17.00;71.00;;;;;;5036435;28;19923;-81
2022/10/17 03:32:06;;;;;;;;;;;17.10;71.00;;;;;;5020631;28;20342;-83
2022/10/17 03:34:32;;;;;;;;;;;17.10;71.00;;;;;;5019470;28;19956;-83
2022/10/17 03:36:58;;;;;;;;;;;17.10;71.00;;;;;;5036273;28;19913;-83
2022/10/17 03:39:26;;;;;;;;;;;17.00;71.00;;;;;;5035852;28;20394;-84
2022/10/17 03:41:52;;;;;;;;;;;17.00;71.00;;;;;;5036315;28;19925;-83
2022/10/17 03:44:18;;;;;;;;;;;17.00;71.00;;;;;;5035992;28;19955;-83
2022/10/17 03:46:44;;;;;;;;;;;17.00;71.00;;;;;;5052739;28;19917;-83
2022/10/17 03:49:10;;;;;;;;;;;17.00;71.00;;;;;;5019524;28;20245;-84
2022/10/17 03:51:36;;;;;;;;;;;17.00;71.00;;;;;;5020012;28;19913;-82
2022/10/17 03:54:06;;;;;;;;;;;17.10;71.10;;;;;;5036191;28;20354;-83
2022/10/17 03:56:32;;;;;;;;;;;17.00;71.00;;;;;;5019756;28;20008;-82
2022/10/17 03:59:11;;;;;;;;;;;17.00;71.00;;;;;;5036235;28;19909;-83
2022/10/17 04:01:37;;;;;;;;;;;17.00;71.00;;;;;;5036142;28;20350;-84
2022/10/17 04:04:03;;;;;;;;;;;17.00;71.00;;;;;;5019178;28;19928;-83
2022/10/17 04:06:31;;;;;;;;;;;17.00;71.00;;;;;;5035640;28;19983;-82
2022/10/17 04:08:57;;;;;;;;;;;17.00;71.10;;;;;;5052047;28;20278;-82
2022/10/17 04:11:27;;;;;;;;;;;17.00;71.10;;;;;;5034923;28;19913;-84
2022/10/17 04:13:59;;;;;;;;;;;17.00;71.10;;;;;;5035769;28;19983;-84
2022/10/17 04:16:26;;;;;;;;;;;17.00;71.00;;;;;;5019663;28;19917;-83
2022/10/17 04:19:01;;;;;;;;;;;17.00;71.10;;;;;;5035312;28;19909;-84
2022/10/17 04:21:32;;;;;;;;;;;17.00;71.00;;;;;;5051833;28;19927;-83
2022/10/17 04:24:03;;;;;;;;;;;17.00;71.10;;;;;;5035387;28;19917;-82
2022/10/17 04:26:50;;;;;;;;;;;17.00;71.10;;;;;;5008110;28;19936;-83
2022/10/17 04:29:16;;;;;;;;;;;17.00;71.10;;;;;;5035317;28;19919;-83
2022/10/17 04:31:44;;;;;;;;;;;16.90;71.00;;;;;;5034959;28;20334;-83
2022/10/17 04:34:20;;;;;;;;;;;17.00;71.10;;;;;;5019491;28;19947;-83
2022/10/17 04:36:46;;;;;;;;;;;16.90;71.00;;;;;;5018376;28;20008;-83
2022/10/17 04:39:12;;;;;;;;;;;16.90;71.10;;;;;;5018539;28;19913;-83
2022/10/17 04:41:38;;;;;;;;;;;16.90;71.10;;;;;;5035319;28;19921;-83
2022/10/17 04:44:04;;;;;;;;;;;16.90;71.10;;;;;;5035328;28;19921;-80
2022/10/17 04:46:34;;;;;;;;;;;17.00;71.10;;;;;;5034349;28;19917;-83
2022/10/17 04:49:00;;;;;;;;;;;16.90;71.10;;;;;;5034016;28;20285;-82
2022/10/17 04:51:26;;;;;;;;;;;16.90;71.10;;;;;;5034180;28;20016;-82
2022/10/17 04:54:18;;;;;;;;;;;16.90;71.10;;;;;;5017698;28;19917;-81
2022/10/17 04:56:47;;;;;;;;;;;17.00;71.20;;;;;;5033969;28;19917;-82
2022/10/17 04:59:13;;;;;;;;;;;16.90;71.20;;;;;;5034265;28;20358;-82
2022/10/17 05:01:41;;;;;;;;;;;16.90;71.10;;;;;;5033889;28;20020;-84
2022/10/17 05:04:07;;;;;;;;;;;16.90;71.20;;;;;;5017400;28;19961;-83
2022/10/17 05:06:33;;;;;;;;;;;16.90;71.20;;;;;;5034549;28;19921;-81
2022/10/17 05:09:17;;;;;;;;;;;16.90;71.20;;;;;;5033694;28;19917;-85
2022/10/17 05:11:43;;;;;;;;;;;16.90;71.20;;;;;;5017403;28;19918;-82
2022/10/17 05:14:09;;;;;;;;;;;16.90;71.20;;;;;;5034304;28;19910;-82
2022/10/17 05:16:35;;;;;;;;;;;16.90;71.20;;;;;;5017583;28;19967;-82
2022/10/17 05:19:00;;;;;;;;;;;16.90;71.20;;;;;;5033714;28;19916;-82
2022/10/17 05:21:31;;;;;;;;;;;16.90;71.20;;;;;;5033743;28;19924;-80
2022/10/17 05:23:56;;;;;;;;;;;16.90;71.20;;;;;;5034244;28;20008;-81
2022/10/17 05:26:23;;;;;;;;;;;16.90;71.20;;;;;;5033684;28;19909;-80
2022/10/17 05:28:51;;;;;;;;;;;16.90;71.20;;;;;;5050119;28;19913;-79
2022/10/17 05:31:18;;;;;;;;;;;16.90;71.20;;;;;;5033690;28;19917;-82
2022/10/17 05:33:43;;;;;;;;;;;16.90;71.20;;;;;;5034066;28;19920;-82
2022/10/17 05:36:09;;;;;;;;;;;16.90;71.20;;;;;;5033486;28;19920;-83
2022/10/17 05:38:35;;;;;;;;;;;16.90;71.20;;;;;;5016704;28;20012;-81
2022/10/17 05:41:02;;;;;;;;;;;16.90;71.20;;;;;;5033330;28;19921;-82
2022/10/17 05:43:29;;;;;;;;;;;16.90;71.30;;;;;;5050725;28;20211;-83
2022/10/17 05:45:55;;;;;;;;;;;16.90;71.30;;;;;;5033838;28;19913;-81
2022/10/17 05:48:21;;;;;;;;;;;16.90;71.20;;;;;;5050402;28;19944;-83
2022/10/17 05:50:47;;;;;;;;;;;16.90;71.30;;;;;;5033907;28;20293;-84
2022/10/17 05:53:15;;;;;;;;;;;16.90;71.30;;;;;;5017842;28;19924;-83
2022/10/17 05:55:53;;;;;;;;;;;16.90;71.30;;;;;;5033602;28;20258;-82
2022/10/17 05:58:19;;;;;;;;;;;16.90;71.30;;;;;;5033919;28;20269;-83
2022/10/17 06:00:47;;;;;;;;;;;16.90;71.30;;;;;;5034050;28;19952;-83
2022/10/17 06:03:13;;;;;;;;;;;16.90;71.30;;;;;;5017309;28;19979;-83
2022/10/17 06:05:39;;;;;;;;;;;16.90;71.30;;;;;;5016862;28;19973;-84
2022/10/17 06:08:04;;;;;;;;;;;16.90;71.30;;;;;;5033364;28;19920;-83
2022/10/17 06:10:33;;;;;;;;;;;16.90;71.30;;;;;;5018399;28;19920;-83
2022/10/17 06:12:59;;;;;;;;;;;16.90;71.30;;;;;;5034377;28;19917;-82
2022/10/17 06:15:25;;;;;;;;;;;16.90;71.30;;;;;;5033474;28;19913;-84
2022/10/17 06:17:57;;;;;;;;;;;16.90;71.30;;;;;;5034742;28;19921;-83
2022/10/17 06:20:23;;;;;;;;;;;16.90;71.30;;;;;;5033443;28;20004;-84
2022/10/17 06:22:48;;;;;;;;;;;16.90;71.30;;;;;;5016371;28;20022;-83
2022/10/17 06:25:22;;;;;;;;;;;16.90;71.30;;;;;;5018593;28;19924;-83
2022/10/17 06:27:48;;;;;;;;;;;16.90;71.30;;;;;;5017048;28;20336;-84
2022/10/17 06:30:14;;;;;;;;;;;16.90;71.30;;;;;;5016805;28;19913;-83
2022/10/17 06:32:39;;;;;;;;;;;16.90;71.30;;;;;;5016819;28;20321;-82
2022/10/17 06:35:05;;;;;;;;;;;16.90;71.30;;;;;;5017427;28;19913;-83
2022/10/17 06:37:31;;;;;;;;;;;16.90;71.40;;;;;;5016937;28;20267;-84
2022/10/17 06:39:58;;;;;;;;;;;16.90;71.40;;;;;;5032622;28;19925;-83
2022/10/17 06:42:24;;;;;;;;;;;16.90;71.30;;;;;;5033373;28;19964;-84
2022/10/17 06:45:04;;;;;;;;;;;16.90;71.40;;;;;;5033743;28;19913;-82
2022/10/17 06:47:56;;;;;;;;;;;16.90;71.40;;;;;;5020138;28;19960;-84
2022/10/17 06:51:01;;;;;;;;;;;16.90;71.40;;;;;;5021072;28;19960;-84
2022/10/17 06:53:27;;;;;;;;;;;16.90;71.40;;;;;;5037290;28;19928;-82
2022/10/17 06:56:24;;;;;;;;;;;16.90;71.40;;;;;;5025309;28;19913;-84
2022/10/17 06:58:58;;;;;;;;;;;16.90;71.40;;;;;;5037128;28;19909;-84
2022/10/17 07:01:33;;;;;;;;;;;16.90;71.40;;;;;;5037431;28;19913;-81
2022/10/17 07:04:01;;;;;;;;;;;16.90;71.40;;;;;;5036464;28;19913;-83
2022/10/17 07:06:28;;;;;;;;;;;17.00;71.50;;;;;;5036208;28;19954;-81
2022/10/17 07:08:56;;;;;;;;;;;16.90;71.40;;;;;;5019884;28;19917;-82
2022/10/17 07:11:21;;;;;;;;;;;16.90;71.40;;;;;;5019578;28;19913;-82
2022/10/17 07:13:49;;;;;;;;;;;16.90;71.50;;;;;;5037125;28;19921;-81
2022/10/17 07:16:15;;;;;;;;;;;17.00;71.50;;;;;;5035848;28;19913;-82
2022/10/17 07:18:47;;;;;;;;;;;17.00;71.50;;;;;;5036056;28;19920;-81
2022/10/17 07:21:15;;;;;;;;;;;17.00;71.50;;;;;;5036643;28;19935;-82
2022/10/17 07:23:41;;;;;;;;;;;17.00;71.50;;;;;;5019648;28;19921;-81
2022/10/17 07:26:08;;;;;;;;;;;17.00;71.50;;;;;;5019388;28;19928;-82
2022/10/17 07:28:37;;;;;;;;;;;17.00;71.60;;;;;;5035865;28;20281;-82
2022/10/17 07:31:11;;;;;;;;;;;17.00;71.60;;;;;;5052871;28;19973;-82
2022/10/17 07:33:37;;;;;;;;;;;17.00;71.60;;;;;;5035934;28;19924;-82
2022/10/17 07:36:04;;;;;;;;;;;17.00;71.60;;;;;;5019909;28;19917;-82
2022/10/17 07:38:30;;;;;;;;;;;17.10;71.70;;;;;;5035765;28;19913;-83
2022/10/17 07:40:57;;;;;;;;;;;17.10;71.60;;;;;;5035887;28;19921;-82
2022/10/17 07:43:23;;;;;;;;;;;17.10;71.70;;;;;;5035735;28;20071;-82
2022/10/17 07:45:49;;;;;;;;;;;17.10;71.70;;;;;;5036510;28;19909;-83
2022/10/17 07:48:15;;;;;;;;;;;17.10;71.70;;;;;;5035531;28;20035;-82
2022/10/17 07:50:41;;;;;;;;;;;17.10;71.70;;;;;;5035415;28;19916;-82
2022/10/17 07:53:06;;;;;;;;;;;17.10;71.70;;;;;;5035284;28;19921;-82
2022/10/17 07:55:32;;;;;;;;;;;17.20;71.70;;;;;;5035723;28;20000;-84
2022/10/17 07:57:59;;;;;;;;;;;17.20;71.80;;;;;;5052233;28;20273;-82
2022/10/17 08:00:25;;;;;;;;;;;17.20;71.80;;;;;;5018491;28;19913;-81
2022/10/17 08:02:51;;;;;;;;;;;17.20;71.80;;;;;;5034745;28;19967;-82
2022/10/17 08:05:16;;;;;;;;;;;17.20;71.80;;;;;;5035424;28;20357;-82
2022/10/17 08:07:42;;;;;;;;;;;17.30;71.90;;;;;;5035091;28;20417;-82
2022/10/17 08:10:10;;;;;;;;;;;17.30;71.80;;;;;;5018590;28;19943;-83
2022/10/17 08:12:36;;;;;;;;;;;17.30;71.80;;;;;;5035196;28;19971;-82
2022/10/17 08:15:02;;;;;;;;;;;17.30;71.90;;;;;;5019196;28;19913;-83
2022/10/17 08:17:27;;;;;;;;;;;17.30;71.80;;;;;;5035932;28;20002;-84
2022/10/17 08:19:53;;;;;;;;;;;17.40;71.90;;;;;;5020619;28;19917;-82
2022/10/17 08:22:19;;;;;;;;;;;17.40;71.90;;;;;;5035982;28;19925;-83
2022/10/17 08:24:45;;;;;;;;;;;17.40;71.90;;;;;;5035909;28;19924;-83
2022/10/17 08:27:12;;;;;;;;;;;17.40;71.90;;;;;;5035191;28;19916;-84
2022/10/17 08:29:38;;;;;;;;;;;17.40;71.90;;;;;;5035764;28;19924;-83
2022/10/17 08:32:05;;;;;;;;;;;17.40;71.90;;;;;;5036089;28;20300;-82
2022/10/17 08:34:31;;;;;;;;;;;17.50;71.90;;;;;;5034183;28;19913;-83
2022/10/17 08:36:56;;;;;;;;;;;17.50;71.90;;;;;;5034715;28;19959;-83
2022/10/17 08:39:22;;;;;;;;;;;17.50;71.90;;;;;;5034983;28;19931;-84
2022/10/17 08:41:54;;;;;;;;;;;17.50;71.90;;;;;;5034989;28;20358;-82
2022/10/17 08:44:38;;;;;;;;;;;17.50;71.90;;;;;;5051749;28;19963;-84
2022/10/17 08:47:08;;;;;;;;;;;17.50;71.90;;;;;;5051631;28;19920;-84
2022/10/17 08:49:40;;;;;;;;;;;17.50;71.90;;;;;;5035198;28;19913;-84
2022/10/17 08:52:10;;;;;;;;;;;17.60;71.90;;;;;;5052183;28;20015;-84
2022/10/17 08:54:35;;;;;;;;;;;17.60;72.00;;;;;;5035667;28;19909;-83
2022/10/17 08:57:01;;;;;;;;;;;17.60;72.00;;;;;;5051922;28;20269;-84
2022/10/17 08:59:28;;;;;;;;;;;17.60;72.00;;;;;;5035229;28;19967;-84
2022/10/17 09:01:56;;;;;;;;;;;17.70;72.00;;;;;;5034192;28;19967;-84
2022/10/17 09:04:41;;;;;;;;;;;17.70;72.00;;;;;;5051421;28;19955;-83
2022/10/17 09:07:06;;;;;;;;;;;17.70;72.00;;;;;;5050453;28;20363;-83
2022/10/17 09:09:51;;;;;;;;;;;17.70;72.00;;;;;;5050532;28;19909;-84
2022/10/17 09:12:19;;;;;;;;;;;17.70;72.00;;;;;;5033530;28;19920;-87
2022/10/17 09:14:45;;;;;;;;;;;17.70;72.00;;;;;;5034202;28;19909;-83
2022/10/17 09:17:15;;;;;;;;;;;17.70;71.90;;;;;;5035753;28;19913;-84
2022/10/17 09:19:47;;;;;;;;;;;17.70;72.00;;;;;;5034308;28;19960;-83
2022/10/17 09:22:16;;;;;;;;;;;17.80;72.00;;;;;;5033822;28;19921;-84
2022/10/17 09:24:44;;;;;;;;;;;17.80;72.00;;;;;;5017222;28;19960;-84
2022/10/17 09:27:15;;;;;;;;;;;17.80;72.00;;;;;;5034148;28;20331;-84
2022/10/17 09:29:43;;;;;;;;;;;17.80;71.90;;;;;;5018293;28;20007;-84
2022/10/17 09:32:18;;;;;;;;;;;17.80;71.90;;;;;;5034303;28;19909;-82
2022/10/17 09:34:44;;;;;;;;;;;17.80;72.00;;;;;;5035318;28;19966;-83
2022/10/17 09:37:13;;;;;;;;;;;17.90;72.00;;;;;;5034176;28;20254;-83
2022/10/17 09:39:40;;;;;;;;;;;17.90;72.00;;;;;;5033607;28;19925;-83
2022/10/17 09:42:08;;;;;;;;;;;17.90;71.90;;;;;;5033630;28;19925;-84
2022/10/17 09:44:37;;;;;;;;;;;17.90;71.90;;;;;;5033409;28;19913;-84
2022/10/17 09:47:30;;;;;;;;;;;17.90;72.00;;;;;;5033418;28;19910;-82
2022/10/17 09:49:56;;;;;;;;;;;17.90;71.90;;;;;;5013900;28;20011;-82
2022/10/17 09:52:24;;;;;;;;;;;18.00;72.00;;;;;;5033987;28;19945;-85
2022/10/17 09:54:52;;;;;;;;;;;18.00;71.90;;;;;;5033812;28;19943;-84
2022/10/17 09:57:18;;;;;;;;;;;18.00;71.90;;;;;;5034315;28;19913;-83
2022/10/17 10:00:04;;;;;;;;;;;18.00;71.90;;;;;;5017305;28;19921;-83
2022/10/17 10:02:47;;;;;;;;;;;18.00;71.90;;;;;;5037270;28;19925;-83
2022/10/17 10:05:23;;;;;;;;;;;18.00;71.90;;;;;;5036582;28;19917;-82
2022/10/17 10:08:03;;;;;;;;;;;18.00;71.90;;;;;;5016569;28;19991;-82
2022/10/17 10:10:29;;;;;;;;;;;18.00;72.50;;;;;;5049599;28;19920;-82
2022/10/17 10:13:03;;;;;;;;;;;18.10;71.90;;;;;;5016374;28;19935;-81
2022/10/17 10:15:31;;;;;;;;;;;18.10;71.90;;;;;;5033298;28;20358;-81
2022/10/17 10:17:57;;;;;;;;;;;18.10;71.90;;;;;;5033072;28;19920;-82
2022/10/17 10:20:27;;;;;;;;;;;18.10;71.90;;;;;;5033342;28;19916;-82
2022/10/17 10:23:23;;;;;;;;;;;18.20;72.00;;;;;;5049361;28;19948;-83
2022/10/17 10:25:53;;;;;;;;;;;18.20;71.90;;;;;;5004125;28;20285;-83
2022/10/17 10:28:20;;;;;;;;;;;18.20;71.90;;;;;;5033186;28;20245;-83
2022/10/17 10:30:46;;;;;;;;;;;18.20;71.90;;;;;;5032531;28;20287;-83
2022/10/17 10:33:12;;;;;;;;;;;18.20;71.90;;;;;;5033227;28;19917;-87
2022/10/17 10:35:38;;;;;;;;;;;18.20;71.90;;;;;;5000617;28;19963;-87
2022/10/17 10:38:08;;;;;;;;;;;18.30;71.90;;;;;;5017268;28;19924;-87
2022/10/17 10:40:44;;;;;;;;;;;18.20;71.90;;;;;;5033114;28;19921;-87
2022/10/17 10:43:18;;;;;;;;;;;18.30;71.90;;;;;;5033490;28;19921;-81
2022/10/17 10:45:44;;;;;;;;;;;18.30;71.90;;;;;;5034322;28;19920;-87
2022/10/17 10:48:23;;;;;;;;;;;18.30;71.80;;;;;;5017233;28;19923;-81
2022/10/17 10:51:10;;;;;;;;;;;18.30;71.80;;;;;;5033407;28;19913;-82
2022/10/17 10:53:40;;;;;;;;;;;18.30;71.80;;;;;;5032948;28;19953;-83
2022/10/17 10:56:25;;;;;;;;;;;18.30;71.80;;;;;;5033281;28;19913;-83
2022/10/17 10:58:53;;;;;;;;;;;18.40;71.90;;;;;;5033100;28;19913;-83
2022/10/17 11:01:33;;;;;;;;;;;18.30;71.80;;;;;;5032910;28;20273;-84
2022/10/17 11:04:11;;;;;;;;;;;18.40;71.80;;;;;;5034311;28;19944;-84
2022/10/17 11:06:39;;;;;;;;;;;18.40;71.80;;;;;;5034108;28;20023;-85
2022/10/17 11:09:11;;;;;;;;;;;18.40;71.80;;;;;;5033614;28;19910;-84
2022/10/17 11:11:39;;;;;;;;;;;18.50;71.90;;;;;;5034451;28;19917;-83
2022/10/17 11:14:20;;;;;;;;;;;18.50;71.80;;;;;;5034635;28;19913;-84
2022/10/17 11:16:48;;;;;;;;;;;18.50;71.80;;;;;;5037246;28;19913;-84
2022/10/17 11:19:23;;;;;;;;;;;18.50;71.80;;;;;;5035640;28;19920;-85
2022/10/17 11:22:08;;;;;;;;;;;18.50;71.80;;;;;;5034276;28;19967;-83
2022/10/17 11:24:41;;;;;;;;;;;18.50;71.80;;;;;;5036066;28;19928;-83
2022/10/17 11:27:07;;;;;;;;;;;18.60;71.80;;;;;;5034199;28;19956;-83
2022/10/17 11:29:37;;;;;;;;;;;18.60;71.80;;;;;;5033979;28;19910;-84
2022/10/17 11:32:21;;;;;;;;;;;18.60;72.40;;;;;;5032733;28;19920;-84
2022/10/17 11:34:50;;;;;;;;;;;18.60;71.80;;;;;;5035235;28;19917;-84
2022/10/17 11:37:24;;;;;;;;;;;18.60;71.80;;;;;;5020167;28;19909;-84
2022/10/17 11:39:55;;;;;;;;;;;18.70;71.80;;;;;;5035950;28;19921;-84
2022/10/17 11:42:37;;;;;;;;;;;18.70;71.80;;;;;;5036520;28;19921;-83
2022/10/17 11:45:06;;;;;;;;;;;18.70;71.80;;;;;;5036410;28;19955;-84
2022/10/17 11:47:44;;;;;;;;;;;18.70;71.70;;;;;;5037684;28;19958;-86
2022/10/17 11:50:28;;;;;;;;;;;18.70;71.70;;;;;;5037034;28;19932;-84
2022/10/17 11:53:00;;;;;;;;;;;18.70;71.70;;;;;;5035951;28;19980;-85
2022/10/17 11:55:26;;;;;;;;;;;18.80;71.80;;;;;;5037331;28;19913;-84
2022/10/17 11:58:11;;;;;;;;;;;18.80;71.80;;;;;;5036064;28;19909;-84
2022/10/17 12:00:49;;;;;;;;;;;18.80;71.80;;;;;;5052573;28;19913;-88
2022/10/17 12:03:24;;;;;;;;;;;18.80;71.70;;;;;;5052911;28;19976;-86
2022/10/17 12:06:01;;;;;;;;;;;18.80;71.70;;;;;;5052645;28;20372;-86
2022/10/17 12:08:33;;;;;;;;;;;18.80;71.70;;;;;;5036791;28;19913;-87
2022/10/17 12:11:17;;;;;;;;;;;18.90;71.70;;;;;;5052877;28;19913;-87
2022/10/17 12:13:50;;;;;;;;;;;18.90;71.70;;;;;;5035703;28;20008;-83
2022/10/17 12:16:19;;;;;;;;;;;18.90;71.70;;;;;;5035662;28;20393;-86
2022/10/17 12:18:45;;;;;;;;;;;18.90;71.70;;;;;;5037378;28;19916;-85
2022/10/17 12:21:11;;;;;;;;;;;18.90;71.70;;;;;;5052457;28;19966;-85
2022/10/17 12:23:38;;;;;;;;;;;18.90;71.70;;;;;;5019226;28;19932;-82
2022/10/17 12:26:05;;;;;;;;;;;18.90;71.70;;;;;;5018734;28;19924;-83
2022/10/17 12:28:44;;;;;;;;;;;19.00;71.70;;;;;;5018198;28;20446;-84
2022/10/17 12:31:17;;;;;;;;;;;19.00;71.70;;;;;;5036288;28;20274;-82
2022/10/17 12:33:50;;;;;;;;;;;19.00;71.70;;;;;;5052294;28;19913;-83
2022/10/17 12:36:16;;;;;;;;;;;19.00;71.70;;;;;;5035054;28;19913;-83
2022/10/17 12:38:46;;;;;;;;;;;19.00;71.60;;;;;;5051367;28;19916;-83
2022/10/17 12:41:12;;;;;;;;;;;19.10;71.70;;;;;;5034259;28;19974;-83
2022/10/17 12:43:48;;;;;;;;;;;19.10;71.70;;;;;;5034564;28;19933;-83
2022/10/17 12:46:37;;;;;;;;;;;19.10;71.60;;;;;;5035034;28;20362;-84
2022/10/17 12:49:18;;;;;;;;;;;19.10;71.60;;;;;;5051939;28;19920;-83
2022/10/17 12:52:03;;;;;;;;;;;19.10;71.60;;;;;;5035351;28;19913;-84
2022/10/17 12:54:29;;;;;;;;;;;19.10;71.60;;;;;;5034643;28;19917;-84
2022/10/17 12:56:56;;;;;;;;;;;19.10;71.60;;;;;;5034631;28;19913;-83
2022/10/17 12:59:27;;;;;;;;;;;19.20;71.70;;;;;;5034272;28;19920;-83
2022/10/17 13:01:57;;;;;;;;;;;19.20;71.70;;;;;;5034400;28;19961;-84
2022/10/17 13:04:23;;;;;;;;;;;19.20;71.60;;;;;;5035189;28;19971;-86
2022/10/17 13:06:53;;;;;;;;;;;19.20;71.60;;;;;;5018764;28;19975;-88
2022/10/17 13:09:27;;;;;;;;;;;19.20;71.60;;;;;;5035206;28;19917;-88
2022/10/17 13:11:56;;;;;;;;;;;19.20;71.60;;;;;;5034986;28;19913;-87
2022/10/17 13:14:23;;;;;;;;;;;19.20;71.60;;;;;;5035906;28;19913;-85
2022/10/17 13:16:52;;;;;;;;;;;19.30;71.60;;;;;;5034516;28;20471;-87
2022/10/17 13:19:18;;;;;;;;;;;19.30;71.60;;;;;;5051534;28;19913;-87
2022/10/17 13:22:13;;;;;;;;;;;19.30;71.60;;;;;;5019069;28;19925;-86
2022/10/17 13:24:39;;;;;;;;;;;19.30;71.60;;;;;;5005399;28;19926;-87
2022/10/17 13:27:26;;;;;;;;;;;19.30;71.60;;;;;;5034775;28;20342;-87
2022/10/17 13:29:51;;;;;;;;;;;19.30;71.50;;;;;;5035308;28;19913;-88
2022/10/17 13:32:17;;;;;;;;;;;19.30;71.50;;;;;;5018157;28;19921;-87
2022/10/17 13:34:43;;;;;;;;;;;19.40;71.60;;;;;;5034272;28;20278;-88
2022/10/17 13:37:13;;;;;;;;;;;19.40;71.50;;;;;;5034552;28;20007;-87
2022/10/17 13:39:40;;;;;;;;;;;19.40;71.50;;;;;;5051066;28;20013;-87
2022/10/17 13:42:14;;;;;;;;;;;19.40;71.50;;;;;;5034638;28;19921;-87
2022/10/17 13:44:40;;;;;;;;;;;19.40;71.50;;;;;;5035521;28;19917;-86
2022/10/17 13:47:05;;;;;;;;;;;19.40;71.50;;;;;;5034377;28;19913;-87
2022/10/17 13:49:31;;;;;;;;;;;19.40;71.50;;;;;;5018142;28;19967;-88
2022/10/17 13:51:57;;;;;;;;;;;19.40;71.40;;;;;;5035193;28;19996;-88
2022/10/17 13:54:34;;;;;;;;;;;19.40;71.50;;;;;;5034984;28;19919;-88
2022/10/17 13:57:00;;;;;;;;;;;19.40;71.40;;;;;;5034226;28;19917;-88
2022/10/17 13:59:52;;;;;;;;;;;19.50;71.40;;;;;;5034604;28;19914;-87
2022/10/17 14:02:19;;;;;;;;;;;19.50;71.40;;;;;;5014507;28;19921;-87
2022/10/17 14:04:45;;;;;;;;;;;19.50;71.50;;;;;;5017812;28;19999;-88
2022/10/17 14:07:28;;;;;;;;;;;19.50;71.40;;;;;;5034285;28;19944;-87
2022/10/17 14:09:53;;;;;;;;;;;19.50;71.40;;;;;;5034470;28;19980;-88
2022/10/17 14:12:20;;;;;;;;;;;19.50;71.40;;;;;;5017699;28;19949;-87
2022/10/17 14:14:47;;;;;;;;;;;19.50;71.40;;;;;;5034122;28;19944;-82
2022/10/17 14:17:14;;;;;;;;;;;19.60;71.40;;;;;;5034353;28;19944;-86
2022/10/17 14:19:39;;;;;;;;;;;19.60;71.40;;;;;;5034360;28;19924;-88
2022/10/17 14:22:20;;;;;;;;;;;19.60;71.40;;;;;;5017902;28;19917;-87
2022/10/17 14:24:47;;;;;;;;;;;19.60;71.40;;;;;;5034471;28;19913;-84
2022/10/17 14:27:26;;;;;;;;;;;19.60;71.40;;;;;;5034671;28;19925;-83
2022/10/17 14:29:53;;;;;;;;;;;19.60;71.40;;;;;;5033406;28;19913;-84
2022/10/17 14:32:19;;;;;;;;;;;19.60;71.40;;;;;;5034125;28;20385;-85